createdAt,value
2023-05-09T00:01:06.027Z,5.85
2023-05-09T00:05:32.294Z,5.95
2023-05-09T00:09:33.658Z,5.96
2023-05-09T00:13:35.127Z,5.90
2023-05-09T00:17:37.903Z,5.94
2023-05-09T00:21:39.311Z,5.94
2023-05-09T00:25:40.650Z,5.95
2023-05-09T00:29:42.723Z,5.96
2023-05-09T00:33:44.119Z,5.98
2023-05-09T00:37:45.492Z,6.02
2023-05-09T00:41:48.120Z,6.05
2023-05-09T00:45:49.870Z,6.07
2023-05-09T00:49:51.399Z,6.08
2023-05-09T00:53:52.769Z,6.05
2023-05-09T00:57:54.287Z,6.02
2023-05-09T01:01:55.665Z,5.96
2023-05-09T01:06:22.057Z,5.95
2023-05-09T01:10:42.795Z,5.90
2023-05-09T01:14:56.510Z,5.87
2023-05-09T01:19:05.226Z,5.84
2023-05-09T01:23:35.934Z,5.84
2023-05-09T01:28:18.654Z,5.81
2023-05-09T01:32:24.882Z,5.82
2023-05-09T01:36:29.858Z,5.77
2023-05-09T01:40:34.285Z,5.47
2023-05-09T01:44:39.375Z,5.38
2023-05-09T01:48:41.969Z,5.39
2023-05-09T01:52:47.472Z,5.35
2023-05-09T01:56:49.352Z,5.29
2023-05-09T02:00:51.250Z,5.22
2023-05-09T02:04:58.008Z,5.12
2023-05-09T02:09:00.863Z,5.10
2023-05-09T02:13:03.269Z,5.08
2023-05-09T02:17:06.188Z,5.08
2023-05-09T02:21:18.138Z,5.01
2023-05-09T02:25:19.571Z,4.91
2023-05-09T02:29:25.425Z,4.88
2023-05-09T02:33:33.745Z,4.81
2023-05-09T02:37:36.554Z,4.76
2023-05-09T02:41:37.957Z,4.76
2023-05-09T02:45:39.540Z,4.75
2023-05-09T02:49:43.096Z,4.72
2023-05-09T02:53:44.401Z,4.72
2023-05-09T02:57:46.842Z,4.75
2023-05-09T03:01:48.349Z,4.71
2023-05-09T03:05:50.167Z,4.53
2023-05-09T03:09:51.522Z,4.34
2023-05-09T03:14:43.598Z,4.30
2023-05-09T03:18:45.102Z,4.15
2023-05-09T03:22:47.784Z,4.25
2023-05-09T03:27:15.967Z,4.41
2023-05-09T03:35:40.547Z,4.44
2023-05-09T03:39:43.278Z,4.45
2023-05-09T03:43:46.382Z,4.68
2023-05-09T03:47:48.970Z,4.90
2023-05-09T03:51:51.984Z,5.01
2023-05-09T03:55:54.561Z,5.16
2023-05-09T03:59:57.109Z,5.40
2023-05-09T04:03:59.778Z,5.62
2023-05-09T04:08:01.891Z,5.62
2023-05-09T04:12:03.360Z,5.85
2023-05-09T04:16:05.016Z,6.68
2023-05-09T04:20:07.588Z,8.08
2023-05-09T04:24:08.977Z,9.61
2023-05-09T04:28:14.161Z,11.01
2023-05-09T04:32:15.554Z,12.01
2023-05-09T04:36:17.013Z,12.84
2023-05-09T04:40:18.481Z,13.63
2023-05-09T04:44:20.980Z,14.24
2023-05-09T04:48:22.387Z,14.47
2023-05-09T04:52:23.799Z,14.42
2023-05-09T04:56:25.561Z,14.34
2023-05-09T05:00:26.924Z,14.11
2023-05-09T05:04:31.072Z,14.08
2023-05-09T05:09:16.830Z,14.14
2023-05-09T05:18:08.204Z,13.54
2023-05-09T05:22:09.648Z,13.35
2023-05-09T05:26:14.345Z,13.17
2023-05-09T05:30:16.016Z,13.21
2023-05-09T05:34:19.679Z,13.39
2023-05-09T05:38:21.064Z,13.54
2023-05-09T05:42:26.359Z,13.65
2023-05-09T05:46:27.677Z,13.73
2023-05-09T05:50:35.900Z,13.62
2023-05-09T05:54:37.257Z,13.34
2023-05-09T05:58:38.661Z,13.15
2023-05-09T06:02:44.276Z,13.02
2023-05-09T06:06:46.130Z,12.97
2023-05-09T06:10:47.580Z,12.64
2023-05-09T06:14:48.960Z,12.55
2023-05-09T06:18:55.515Z,12.66
2023-05-09T06:22:57.413Z,12.87
2023-05-09T06:26:58.850Z,13.08
2023-05-09T06:31:01.566Z,13.03
2023-05-09T06:35:03.152Z,12.87
2023-05-09T06:39:04.600Z,12.81
2023-05-09T06:43:07.058Z,12.83
2023-05-09T07:09:27.294Z,13.40
2023-05-09T07:29:35.686Z,13.93
2023-05-09T07:33:37.221Z,13.99
2023-05-09T07:37:38.660Z,14.15
2023-05-09T07:41:40.088Z,14.17
2023-05-09T07:45:41.490Z,14.16
2023-05-09T07:49:44.736Z,14.34
2023-05-09T07:53:46.208Z,14.22
2023-05-09T07:57:47.674Z,14.21
2023-05-09T08:01:50.236Z,14.34
2023-05-09T08:05:55.773Z,14.49
2023-05-09T08:09:57.288Z,14.82
2023-05-09T08:13:58.768Z,15.07
2023-05-09T08:18:11.722Z,15.28
2023-05-09T08:22:17.970Z,15.21
2023-05-09T08:26:19.398Z,15.14
2023-05-09T08:30:20.889Z,15.14
2023-05-09T08:34:26.619Z,15.23
2023-05-09T08:38:28.245Z,15.29
2023-05-09T08:42:31.470Z,15.30
2023-05-09T08:46:42.151Z,15.29
2023-05-09T08:50:44.143Z,15.44
2023-05-09T08:54:45.869Z,15.63
2023-05-09T08:59:05.048Z,15.73
2023-05-09T09:03:07.055Z,15.73
2023-05-09T09:07:09.380Z,16.02
2023-05-09T09:11:12.983Z,16.10
2023-05-09T09:15:17.153Z,16.12
2023-05-09T09:19:21.676Z,15.95
2023-05-09T09:23:25.381Z,15.89
2023-05-09T09:27:27.336Z,16.09
2023-05-09T09:47:41.960Z,16.45
2023-05-09T09:51:58.480Z,16.44
2023-05-09T09:55:59.892Z,16.40
2023-05-09T10:00:01.387Z,16.40
2023-05-09T10:04:02.980Z,16.44
2023-05-09T10:09:03.414Z,16.39
2023-05-09T10:13:10.163Z,16.45
2023-05-09T10:17:14.158Z,16.47
2023-05-09T10:21:15.782Z,16.59
2023-05-09T10:25:20.909Z,16.77
2023-05-09T10:29:58.978Z,16.77
2023-05-09T10:34:09.577Z,16.75
2023-05-09T10:38:12.381Z,16.77
2023-05-09T10:42:13.979Z,16.72
2023-05-09T10:46:16.826Z,16.97
2023-05-09T10:50:20.768Z,17.02
2023-05-09T10:54:30.081Z,16.92
2023-05-09T10:58:35.818Z,17.25
2023-05-09T11:02:38.675Z,17.46
2023-05-09T11:06:48.587Z,17.22
2023-05-09T11:10:51.369Z,17.33
2023-05-09T11:14:55.393Z,17.27
2023-05-09T11:18:57.158Z,17.16
2023-05-09T11:23:00.670Z,17.11
2023-05-09T11:27:13.808Z,17.24
2023-05-09T11:31:17.305Z,17.38
2023-05-09T11:35:22.960Z,17.34
2023-05-09T11:39:25.049Z,17.35
2023-05-09T11:43:26.930Z,17.34
2023-05-09T11:47:30.217Z,17.57
2023-05-09T11:51:35.951Z,17.71
2023-05-09T11:55:37.825Z,17.86
2023-05-09T11:59:39.951Z,18.01
2023-05-09T12:03:44.376Z,18.00
2023-05-09T12:07:47.255Z,18.06
2023-05-09T12:11:50.128Z,18.05
2023-05-09T12:16:00.245Z,18.11
2023-05-09T12:20:05.262Z,18.30
2023-05-09T12:24:07.429Z,18.18
2023-05-09T12:28:09.505Z,18.24
2023-05-09T12:32:15.976Z,18.34
2023-05-09T12:36:18.255Z,18.15
2023-05-09T12:40:20.114Z,18.22
2023-05-09T12:44:23.932Z,18.29
2023-05-09T12:48:26.235Z,18.31
2023-05-09T12:52:50.200Z,18.31
2023-05-09T12:57:00.703Z,18.23
2023-05-09T13:01:06.130Z,18.20
2023-05-09T13:05:15.143Z,18.36
2023-05-09T13:09:17.707Z,18.42
2023-05-09T13:13:21.142Z,18.40
2023-05-09T13:17:22.970Z,18.47
2023-05-09T13:21:24.833Z,18.50
2023-05-09T13:25:26.424Z,18.48
2023-05-09T13:29:27.991Z,18.55
2023-05-09T13:33:29.750Z,18.53
2023-05-09T13:37:31.324Z,18.59
2023-05-09T13:41:38.222Z,18.41
2023-05-09T13:45:40.392Z,18.53
2023-05-09T13:49:42.177Z,18.58
2023-05-09T13:53:43.806Z,18.67
2023-05-09T13:57:45.753Z,18.77
2023-05-09T14:01:47.571Z,18.72
2023-05-09T14:05:50.440Z,18.77
2023-05-09T14:09:58.772Z,18.82
2023-05-09T14:14:11.498Z,19.00
2023-05-09T14:18:17.006Z,19.11
2023-05-09T14:22:21.023Z,19.03
2023-05-09T14:26:22.970Z,19.08
2023-05-09T14:30:26.268Z,19.10
2023-05-09T14:34:28.467Z,18.99
2023-05-09T14:38:32.519Z,18.99
2023-05-09T14:42:35.004Z,19.03
2023-05-09T14:46:37.195Z,19.04
2023-05-09T14:50:39.502Z,19.14
2023-05-09T14:54:41.648Z,19.27
2023-05-09T14:58:43.488Z,19.30
2023-05-09T15:02:45.376Z,19.19
2023-05-09T15:06:47.341Z,19.15
2023-05-09T15:10:50.271Z,19.16
2023-05-09T15:14:53.956Z,19.16
2023-05-09T15:18:56.599Z,19.04
2023-05-09T15:22:58.715Z,18.99
2023-05-09T15:27:00.550Z,18.94
2023-05-09T15:31:02.888Z,18.98
2023-05-09T15:35:06.216Z,18.96
2023-05-09T15:39:08.243Z,18.94
2023-05-09T15:43:10.060Z,18.88
2023-05-09T15:47:11.829Z,18.99
2023-05-09T15:51:13.768Z,18.83
2023-05-09T15:55:15.728Z,18.82
2023-05-09T15:59:18.262Z,18.75
2023-05-09T16:03:20.241Z,18.67
2023-05-09T16:07:22.917Z,18.62
2023-05-09T16:11:24.972Z,18.57
2023-05-09T16:15:27.086Z,18.44
2023-05-09T16:19:28.897Z,18.51
2023-05-09T16:23:30.787Z,18.34
2023-05-09T16:27:32.677Z,18.33
2023-05-09T16:31:35.720Z,18.28
2023-05-09T16:35:37.755Z,18.26
2023-05-09T16:39:39.590Z,18.17
2023-05-09T16:43:42.179Z,18.06
2023-05-09T16:47:44.055Z,17.94
2023-05-09T16:51:45.942Z,17.90
2023-05-09T16:55:48.479Z,17.79
2023-05-09T16:59:50.324Z,17.68
2023-05-09T17:03:52.229Z,17.63
2023-05-09T17:07:54.173Z,17.47
2023-05-09T17:11:55.952Z,17.38
2023-05-09T17:15:57.721Z,17.25
2023-05-09T17:20:03.808Z,17.12
2023-05-09T17:24:06.392Z,16.99
2023-05-09T17:28:08.596Z,16.83
2023-05-09T17:32:10.374Z,16.62
2023-05-09T17:36:12.301Z,16.49
2023-05-09T17:40:14.477Z,16.38
2023-05-09T17:44:16.636Z,16.28
2023-05-09T17:48:18.630Z,16.15
2023-05-09T17:52:21.038Z,15.96
2023-05-09T17:56:23.364Z,15.81
2023-05-09T18:00:25.091Z,15.68
2023-05-09T18:04:29.703Z,15.55
2023-05-09T18:08:31.585Z,15.45
2023-05-09T18:12:36.845Z,15.35
2023-05-09T18:16:39.217Z,15.22
2023-05-09T18:20:41.779Z,15.06
2023-05-09T18:24:44.150Z,14.84
2023-05-09T18:28:45.952Z,14.63
2023-05-09T18:32:47.753Z,14.49
2023-05-09T18:36:50.899Z,14.32
2023-05-09T18:40:52.851Z,14.11
2023-05-09T18:44:54.600Z,13.85
2023-05-09T18:48:56.636Z,13.62
2023-05-09T18:52:59.107Z,13.46
2023-05-09T18:57:01.987Z,13.36
2023-05-09T19:01:04.262Z,13.28
2023-05-09T19:05:07.502Z,13.19
2023-05-09T19:09:09.451Z,13.06
2023-05-09T19:13:11.960Z,12.65
2023-05-09T19:17:15.172Z,12.22
2023-05-09T19:21:18.223Z,12.10
2023-05-09T19:25:20.066Z,12.07
2023-05-09T19:29:21.780Z,12.01
2023-05-09T19:33:24.436Z,11.76
2023-05-09T19:37:26.341Z,11.51
2023-05-09T19:41:28.044Z,11.41
2023-05-09T19:45:30.555Z,11.39
2023-05-09T19:49:32.312Z,11.40
2023-05-09T19:53:34.083Z,11.43
2023-05-09T19:57:35.823Z,11.31
2023-05-09T20:01:37.602Z,11.17
2023-05-09T20:09:58.774Z,11.10
2023-05-09T20:14:00.481Z,11.09
2023-05-09T20:18:03.017Z,11.11
2023-05-09T20:22:08.303Z,11.17
2023-05-09T20:26:10.483Z,11.23
2023-05-09T20:30:12.581Z,11.24
2023-05-09T20:34:17.560Z,11.20
2023-05-09T20:38:20.175Z,11.14
2023-05-09T20:42:22.842Z,11.04
2023-05-09T20:46:25.076Z,11.03
2023-05-09T20:50:26.881Z,11.04
2023-05-09T20:54:30.290Z,11.05
2023-05-09T20:58:33.721Z,11.05
2023-05-09T21:02:35.635Z,11.06
2023-05-09T21:06:37.993Z,11.06
2023-05-09T21:10:39.655Z,11.04
2023-05-09T21:14:41.484Z,11.05
2023-05-09T21:18:43.299Z,11.03
2023-05-09T21:22:45.578Z,11.00
2023-05-09T21:26:47.374Z,10.92
2023-05-09T21:30:53.264Z,10.88
2023-05-09T21:34:55.137Z,10.82
2023-05-09T21:38:56.939Z,10.80
2023-05-09T21:42:58.667Z,10.79
2023-05-09T21:47:00.660Z,10.77
2023-05-09T21:51:04.213Z,10.74
2023-05-09T21:55:05.973Z,10.69
2023-05-09T21:59:08.520Z,10.64
2023-05-09T22:03:10.618Z,10.56
2023-05-09T22:07:12.639Z,10.51
2023-05-09T22:11:15.252Z,10.44
2023-05-09T22:15:17.766Z,10.33
2023-05-09T22:19:19.888Z,10.28
2023-05-09T22:23:21.715Z,10.21
2023-05-09T22:27:24.535Z,10.16
2023-05-09T22:31:26.332Z,10.10
2023-05-09T22:35:28.141Z,10.04
2023-05-09T22:39:30.350Z,10.01
2023-05-09T22:43:38.692Z,9.99
2023-05-09T22:47:41.455Z,9.94
2023-05-09T22:51:43.592Z,9.88
2023-05-09T22:55:55.521Z,9.88
2023-05-09T22:59:57.321Z,9.88
2023-05-09T23:03:59.063Z,9.78
2023-05-09T23:08:00.783Z,9.71
2023-05-09T23:12:02.914Z,9.61
2023-05-09T23:16:05.202Z,9.65
2023-05-09T23:20:08.220Z,9.59
2023-05-09T23:24:11.892Z,9.54
2023-05-09T23:28:13.671Z,9.52
2023-05-09T23:32:15.471Z,9.51
2023-05-09T23:36:17.423Z,9.49
2023-05-09T23:40:19.605Z,9.49
2023-05-09T23:44:21.636Z,9.51
2023-05-09T23:48:24.324Z,9.51
2023-05-09T23:52:26.114Z,9.49
2023-05-09T23:56:28.078Z,9.46
